sensor_id;sensor_type;location;lat;lon;timestamp;P1;durP1;ratioP1;P2;durP2;ratioP2
19111;SDS011;9688;51.906;8.376;2022-12-16T00:02:19;37.87;;;16.80;;
19111;SDS011;9688;51.906;8.376;2022-12-16T00:05:05;32.47;;;17.60;;
19111;SDS011;9688;51.906;8.376;2022-12-16T00:07:52;28.60;;;14.97;;
19111;SDS011;9688;51.906;8.376;2022-12-16T00:10:39;37.33;;;17.83;;
19111;SDS011;9688;51.906;8.376;2022-12-16T00:13:37;30.83;;;15.37;;
19111;SDS011;9688;51.906;8.376;2022-12-16T00:16:24;34.13;;;16.27;;
19111;SDS011;9688;51.906;8.376;2022-12-16T00:19:09;33.93;;;15.80;;
19111;SDS011;9688;51.906;8.376;2022-12-16T00:21:55;35.37;;;16.40;;
19111;SDS011;9688;51.906;8.376;2022-12-16T00:24:40;31.47;;;16.13;;
19111;SDS011;9688;51.906;8.376;2022-12-16T00:27:27;32.27;;;15.60;;
19111;SDS011;9688;51.906;8.376;2022-12-16T00:30:13;34.83;;;16.50;;
19111;SDS011;9688;51.906;8.376;2022-12-16T00:32:59;33.63;;;16.53;;
19111;SDS011;9688;51.906;8.376;2022-12-16T00:35:44;37.23;;;16.07;;
19111;SDS011;9688;51.906;8.376;2022-12-16T00:38:30;34.33;;;16.33;;
19111;SDS011;9688;51.906;8.376;2022-12-16T00:41:16;32.63;;;16.50;;
19111;SDS011;9688;51.906;8.376;2022-12-16T00:44:03;40.23;;;17.03;;
19111;SDS011;9688;51.906;8.376;2022-12-16T00:46:49;33.67;;;17.53;;
19111;SDS011;9688;51.906;8.376;2022-12-16T00:49:35;35.07;;;15.67;;
19111;SDS011;9688;51.906;8.376;2022-12-16T00:52:21;33.40;;;15.27;;
19111;SDS011;9688;51.906;8.376;2022-12-16T00:55:07;27.70;;;15.13;;
19111;SDS011;9688;51.906;8.376;2022-12-16T00:57:53;28.07;;;15.03;;
19111;SDS011;9688;51.906;8.376;2022-12-16T01:00:40;32.00;;;15.30;;
19111;SDS011;9688;51.906;8.376;2022-12-16T01:03:26;27.33;;;14.93;;
19111;SDS011;9688;51.906;8.376;2022-12-16T01:06:13;28.47;;;13.77;;
19111;SDS011;9688;51.906;8.376;2022-12-16T01:08:59;31.93;;;15.30;;
19111;SDS011;9688;51.906;8.376;2022-12-16T01:11:45;29.60;;;14.83;;
19111;SDS011;9688;51.906;8.376;2022-12-16T01:14:30;28.23;;;14.40;;
19111;SDS011;9688;51.906;8.376;2022-12-16T01:17:17;28.87;;;14.67;;
19111;SDS011;9688;51.906;8.376;2022-12-16T01:20:04;29.90;;;14.63;;
19111;SDS011;9688;51.906;8.376;2022-12-16T01:22:51;24.07;;;13.30;;
19111;SDS011;9688;51.906;8.376;2022-12-16T01:25:37;23.43;;;13.90;;
19111;SDS011;9688;51.906;8.376;2022-12-16T01:28:23;31.07;;;14.00;;
19111;SDS011;9688;51.906;8.376;2022-12-16T01:31:08;26.27;;;14.07;;
19111;SDS011;9688;51.906;8.376;2022-12-16T01:33:56;27.07;;;13.90;;
19111;SDS011;9688;51.906;8.376;2022-12-16T01:36:42;27.53;;;13.77;;
19111;SDS011;9688;51.906;8.376;2022-12-16T01:39:27;30.27;;;14.77;;
19111;SDS011;9688;51.906;8.376;2022-12-16T01:42:13;31.27;;;14.13;;
19111;SDS011;9688;51.906;8.376;2022-12-16T01:45:20;28.17;;;14.43;;
19111;SDS011;9688;51.906;8.376;2022-12-16T01:48:14;31.47;;;14.77;;
19111;SDS011;9688;51.906;8.376;2022-12-16T01:51:08;30.70;;;14.67;;
19111;SDS011;9688;51.906;8.376;2022-12-16T01:53:56;26.43;;;13.43;;
19111;SDS011;9688;51.906;8.376;2022-12-16T01:56:47;30.73;;;14.00;;
19111;SDS011;9688;51.906;8.376;2022-12-16T01:59:39;29.37;;;14.13;;
19111;SDS011;9688;51.906;8.376;2022-12-16T02:02:29;30.60;;;13.63;;
19111;SDS011;9688;51.906;8.376;2022-12-16T02:05:14;28.67;;;13.63;;
19111;SDS011;9688;51.906;8.376;2022-12-16T02:08:11;27.87;;;14.27;;
19111;SDS011;9688;51.906;8.376;2022-12-16T02:11:05;30.53;;;14.37;;
19111;SDS011;9688;51.906;8.376;2022-12-16T02:14:13;28.97;;;13.87;;
19111;SDS011;9688;51.906;8.376;2022-12-16T02:17:12;28.90;;;13.53;;
19111;SDS011;9688;51.906;8.376;2022-12-16T02:23:41;30.33;;;13.07;;
19111;SDS011;9688;51.906;8.376;2022-12-16T02:26:57;29.07;;;12.83;;
19111;SDS011;9688;51.906;8.376;2022-12-16T02:33:36;27.60;;;13.00;;
19111;SDS011;9688;51.906;8.376;2022-12-16T02:36:36;28.53;;;13.73;;
19111;SDS011;9688;51.906;8.376;2022-12-16T02:39:29;25.00;;;13.30;;
19111;SDS011;9688;51.906;8.376;2022-12-16T02:42:24;26.67;;;13.00;;
19111;SDS011;9688;51.906;8.376;2022-12-16T02:45:14;28.47;;;14.03;;
19111;SDS011;9688;51.906;8.376;2022-12-16T02:48:03;27.40;;;14.37;;
19111;SDS011;9688;51.906;8.376;2022-12-16T02:50:50;29.30;;;13.17;;
19111;SDS011;9688;51.906;8.376;2022-12-16T02:53:37;26.77;;;13.70;;
19111;SDS011;9688;51.906;8.376;2022-12-16T02:56:29;28.10;;;14.30;;
19111;SDS011;9688;51.906;8.376;2022-12-16T02:59:23;22.00;;;11.97;;
19111;SDS011;9688;51.906;8.376;2022-12-16T03:02:15;23.87;;;12.70;;
19111;SDS011;9688;51.906;8.376;2022-12-16T03:05:08;23.77;;;12.13;;
19111;SDS011;9688;51.906;8.376;2022-12-16T03:07:59;28.70;;;12.73;;
19111;SDS011;9688;51.906;8.376;2022-12-16T03:10:50;25.40;;;12.70;;
19111;SDS011;9688;51.906;8.376;2022-12-16T03:13:42;24.90;;;13.03;;
19111;SDS011;9688;51.906;8.376;2022-12-16T03:16:31;23.53;;;12.87;;
19111;SDS011;9688;51.906;8.376;2022-12-16T03:19:18;24.47;;;13.07;;
19111;SDS011;9688;51.906;8.376;2022-12-16T03:22:08;27.77;;;14.47;;
19111;SDS011;9688;51.906;8.376;2022-12-16T03:24:57;24.83;;;12.97;;
19111;SDS011;9688;51.906;8.376;2022-12-16T03:27:45;27.43;;;13.10;;
19111;SDS011;9688;51.906;8.376;2022-12-16T03:30:38;27.33;;;14.23;;
19111;SDS011;9688;51.906;8.376;2022-12-16T03:33:28;25.10;;;12.20;;
19111;SDS011;9688;51.906;8.376;2022-12-16T03:36:19;32.87;;;14.27;;
19111;SDS011;9688;51.906;8.376;2022-12-16T03:39:08;28.67;;;14.50;;
19111;SDS011;9688;51.906;8.376;2022-12-16T03:41:55;25.10;;;13.60;;
19111;SDS011;9688;51.906;8.376;2022-12-16T03:44:41;28.33;;;13.10;;
19111;SDS011;9688;51.906;8.376;2022-12-16T03:47:29;24.90;;;13.53;;
19111;SDS011;9688;51.906;8.376;2022-12-16T03:50:15;29.47;;;12.40;;
19111;SDS011;9688;51.906;8.376;2022-12-16T03:53:02;24.97;;;13.30;;
19111;SDS011;9688;51.906;8.376;2022-12-16T03:55:49;29.23;;;13.07;;
19111;SDS011;9688;51.906;8.376;2022-12-16T03:58:35;28.87;;;12.47;;
19111;SDS011;9688;51.906;8.376;2022-12-16T04:01:22;21.03;;;11.83;;
19111;SDS011;9688;51.906;8.376;2022-12-16T04:04:08;26.33;;;12.43;;
19111;SDS011;9688;51.906;8.376;2022-12-16T04:06:54;28.33;;;13.10;;
19111;SDS011;9688;51.906;8.376;2022-12-16T04:09:53;29.67;;;12.77;;
19111;SDS011;9688;51.906;8.376;2022-12-16T04:12:40;25.10;;;12.27;;
19111;SDS011;9688;51.906;8.376;2022-12-16T04:15:43;21.47;;;11.73;;
19111;SDS011;9688;51.906;8.376;2022-12-16T04:18:47;21.77;;;10.83;;
19111;SDS011;9688;51.906;8.376;2022-12-16T04:21:50;19.70;;;10.40;;
19111;SDS011;9688;51.906;8.376;2022-12-16T04:24:53;25.10;;;11.50;;
19111;SDS011;9688;51.906;8.376;2022-12-16T04:27:40;25.50;;;11.23;;
19111;SDS011;9688;51.906;8.376;2022-12-16T04:30:30;26.37;;;10.90;;
19111;SDS011;9688;51.906;8.376;2022-12-16T04:33:18;24.43;;;10.90;;
19111;SDS011;9688;51.906;8.376;2022-12-16T04:36:22;26.37;;;11.67;;
19111;SDS011;9688;51.906;8.376;2022-12-16T04:39:37;21.87;;;11.33;;
19111;SDS011;9688;51.906;8.376;2022-12-16T04:42:42;24.03;;;11.60;;
19111;SDS011;9688;51.906;8.376;2022-12-16T04:45:45;21.97;;;10.90;;
19111;SDS011;9688;51.906;8.376;2022-12-16T04:48:48;20.23;;;10.97;;
19111;SDS011;9688;51.906;8.376;2022-12-16T04:51:52;24.77;;;11.67;;
19111;SDS011;9688;51.906;8.376;2022-12-16T04:54:55;23.30;;;10.83;;
19111;SDS011;9688;51.906;8.376;2022-12-16T04:58:00;27.07;;;11.63;;
19111;SDS011;9688;51.906;8.376;2022-12-16T05:01:05;23.23;;;10.63;;
19111;SDS011;9688;51.906;8.376;2022-12-16T05:04:08;22.37;;;11.47;;
19111;SDS011;9688;51.906;8.376;2022-12-16T05:07:11;23.70;;;10.73;;
19111;SDS011;9688;51.906;8.376;2022-12-16T05:10:20;23.60;;;11.70;;
19111;SDS011;9688;51.906;8.376;2022-12-16T05:13:24;22.80;;;11.30;;
19111;SDS011;9688;51.906;8.376;2022-12-16T05:16:27;24.40;;;11.10;;
19111;SDS011;9688;51.906;8.376;2022-12-16T05:19:31;28.80;;;11.77;;
19111;SDS011;9688;51.906;8.376;2022-12-16T05:22:34;21.00;;;11.27;;
19111;SDS011;9688;51.906;8.376;2022-12-16T05:25:37;20.73;;;11.23;;
19111;SDS011;9688;51.906;8.376;2022-12-16T05:28:43;23.37;;;10.80;;
19111;SDS011;9688;51.906;8.376;2022-12-16T05:31:48;18.50;;;11.07;;
19111;SDS011;9688;51.906;8.376;2022-12-16T05:34:51;25.43;;;12.00;;
19111;SDS011;9688;51.906;8.376;2022-12-16T05:37:54;22.77;;;11.50;;
19111;SDS011;9688;51.906;8.376;2022-12-16T05:40:57;22.03;;;11.43;;
19111;SDS011;9688;51.906;8.376;2022-12-16T05:44:02;24.23;;;11.10;;
19111;SDS011;9688;51.906;8.376;2022-12-16T05:47:06;20.70;;;10.53;;
19111;SDS011;9688;51.906;8.376;2022-12-16T05:50:09;24.27;;;11.97;;
19111;SDS011;9688;51.906;8.376;2022-12-16T05:53:12;27.67;;;11.70;;
19111;SDS011;9688;51.906;8.376;2022-12-16T05:56:15;25.60;;;12.47;;
19111;SDS011;9688;51.906;8.376;2022-12-16T05:59:20;25.33;;;12.13;;
19111;SDS011;9688;51.906;8.376;2022-12-16T06:02:24;23.60;;;12.30;;
19111;SDS011;9688;51.906;8.376;2022-12-16T06:05:27;29.43;;;12.20;;
19111;SDS011;9688;51.906;8.376;2022-12-16T06:08:30;25.33;;;11.77;;
19111;SDS011;9688;51.906;8.376;2022-12-16T06:11:33;22.63;;;11.50;;
19111;SDS011;9688;51.906;8.376;2022-12-16T06:14:39;28.83;;;12.33;;
19111;SDS011;9688;51.906;8.376;2022-12-16T06:17:42;29.20;;;14.27;;
19111;SDS011;9688;51.906;8.376;2022-12-16T06:20:49;31.63;;;13.73;;
19111;SDS011;9688;51.906;8.376;2022-12-16T06:23:52;25.63;;;12.53;;
19111;SDS011;9688;51.906;8.376;2022-12-16T06:26:56;25.30;;;13.00;;
19111;SDS011;9688;51.906;8.376;2022-12-16T06:30:09;30.43;;;13.60;;
19111;SDS011;9688;51.906;8.376;2022-12-16T06:33:13;24.97;;;13.10;;
19111;SDS011;9688;51.906;8.376;2022-12-16T06:36:16;24.77;;;12.33;;
19111;SDS011;9688;51.906;8.376;2022-12-16T06:39:19;24.20;;;12.50;;
19111;SDS011;9688;51.906;8.376;2022-12-16T06:42:23;23.63;;;11.83;;
19111;SDS011;9688;51.906;8.376;2022-12-16T06:45:27;23.33;;;12.40;;
19111;SDS011;9688;51.906;8.376;2022-12-16T06:48:30;28.27;;;12.83;;
19111;SDS011;9688;51.906;8.376;2022-12-16T06:51:34;35.43;;;13.07;;
19111;SDS011;9688;51.906;8.376;2022-12-16T06:54:37;26.27;;;12.00;;
19111;SDS011;9688;51.906;8.376;2022-12-16T06:57:58;27.30;;;11.93;;
19111;SDS011;9688;51.906;8.376;2022-12-16T07:01:03;24.27;;;11.03;;
19111;SDS011;9688;51.906;8.376;2022-12-16T07:04:07;22.00;;;10.17;;
19111;SDS011;9688;51.906;8.376;2022-12-16T07:07:10;24.03;;;10.90;;
19111;SDS011;9688;51.906;8.376;2022-12-16T07:10:13;23.70;;;10.77;;
19111;SDS011;9688;51.906;8.376;2022-12-16T07:13:17;20.60;;;10.03;;
19111;SDS011;9688;51.906;8.376;2022-12-16T07:16:23;23.93;;;11.37;;
19111;SDS011;9688;51.906;8.376;2022-12-16T07:19:27;25.27;;;11.67;;
19111;SDS011;9688;51.906;8.376;2022-12-16T07:22:31;30.60;;;11.73;;
19111;SDS011;9688;51.906;8.376;2022-12-16T07:25:34;23.67;;;11.53;;
19111;SDS011;9688;51.906;8.376;2022-12-16T07:28:37;25.77;;;12.60;;
19111;SDS011;9688;51.906;8.376;2022-12-16T07:31:42;26.63;;;13.53;;
19111;SDS011;9688;51.906;8.376;2022-12-16T07:34:46;30.20;;;12.80;;
19111;SDS011;9688;51.906;8.376;2022-12-16T07:37:49;30.67;;;12.77;;
19111;SDS011;9688;51.906;8.376;2022-12-16T07:40:52;30.13;;;11.43;;
19111;SDS011;9688;51.906;8.376;2022-12-16T07:43:56;21.57;;;10.97;;
19111;SDS011;9688;51.906;8.376;2022-12-16T07:47:01;25.27;;;11.10;;
19111;SDS011;9688;51.906;8.376;2022-12-16T07:50:05;19.97;;;11.93;;
19111;SDS011;9688;51.906;8.376;2022-12-16T07:53:08;27.77;;;13.10;;
19111;SDS011;9688;51.906;8.376;2022-12-16T07:56:12;22.20;;;12.20;;
19111;SDS011;9688;51.906;8.376;2022-12-16T07:59:16;23.70;;;12.93;;
19111;SDS011;9688;51.906;8.376;2022-12-16T08:02:20;28.33;;;12.97;;
19111;SDS011;9688;51.906;8.376;2022-12-16T08:05:25;31.20;;;13.10;;
19111;SDS011;9688;51.906;8.376;2022-12-16T08:08:29;22.63;;;12.47;;
19111;SDS011;9688;51.906;8.376;2022-12-16T08:11:33;26.90;;;12.67;;
19111;SDS011;9688;51.906;8.376;2022-12-16T08:14:36;26.43;;;12.87;;
19111;SDS011;9688;51.906;8.376;2022-12-16T08:17:43;23.53;;;12.30;;
19111;SDS011;9688;51.906;8.376;2022-12-16T08:20:50;27.00;;;13.63;;
19111;SDS011;9688;51.906;8.376;2022-12-16T08:23:53;27.90;;;14.80;;
19111;SDS011;9688;51.906;8.376;2022-12-16T08:26:57;30.73;;;15.53;;
19111;SDS011;9688;51.906;8.376;2022-12-16T08:30:00;33.53;;;14.77;;
19111;SDS011;9688;51.906;8.376;2022-12-16T08:33:04;33.77;;;16.43;;
19111;SDS011;9688;51.906;8.376;2022-12-16T08:36:08;37.40;;;16.37;;
19111;SDS011;9688;51.906;8.376;2022-12-16T08:39:14;25.40;;;14.20;;
19111;SDS011;9688;51.906;8.376;2022-12-16T08:42:19;31.10;;;15.03;;
19111;SDS011;9688;51.906;8.376;2022-12-16T08:45:22;28.00;;;12.87;;
19111;SDS011;9688;51.906;8.376;2022-12-16T08:48:27;26.87;;;11.97;;
19111;SDS011;9688;51.906;8.376;2022-12-16T08:51:30;25.53;;;12.50;;
19111;SDS011;9688;51.906;8.376;2022-12-16T08:54:34;46.03;;;16.73;;
19111;SDS011;9688;51.906;8.376;2022-12-16T08:57:37;22.17;;;12.20;;
19111;SDS011;9688;51.906;8.376;2022-12-16T09:00:40;27.87;;;11.93;;
19111;SDS011;9688;51.906;8.376;2022-12-16T09:03:46;26.63;;;12.20;;
19111;SDS011;9688;51.906;8.376;2022-12-16T09:06:49;29.00;;;12.93;;
19111;SDS011;9688;51.906;8.376;2022-12-16T09:09:53;26.57;;;11.73;;
19111;SDS011;9688;51.906;8.376;2022-12-16T09:13:03;29.47;;;13.43;;
19111;SDS011;9688;51.906;8.376;2022-12-16T09:16:11;26.17;;;12.07;;
19111;SDS011;9688;51.906;8.376;2022-12-16T09:19:23;27.53;;;12.17;;
19111;SDS011;9688;51.906;8.376;2022-12-16T09:22:29;23.07;;;11.77;;
19111;SDS011;9688;51.906;8.376;2022-12-16T09:25:33;27.10;;;12.77;;
19111;SDS011;9688;51.906;8.376;2022-12-16T09:28:32;24.90;;;12.07;;
19111;SDS011;9688;51.906;8.376;2022-12-16T09:31:36;27.13;;;12.70;;
19111;SDS011;9688;51.906;8.376;2022-12-16T09:34:42;29.00;;;11.57;;
19111;SDS011;9688;51.906;8.376;2022-12-16T09:37:46;23.17;;;12.80;;
19111;SDS011;9688;51.906;8.376;2022-12-16T09:40:50;27.10;;;12.63;;
19111;SDS011;9688;51.906;8.376;2022-12-16T09:43:55;27.50;;;13.00;;
19111;SDS011;9688;51.906;8.376;2022-12-16T09:47:10;24.93;;;12.10;;
19111;SDS011;9688;51.906;8.376;2022-12-16T09:50:28;28.20;;;13.07;;
19111;SDS011;9688;51.906;8.376;2022-12-16T09:53:33;26.20;;;12.30;;
19111;SDS011;9688;51.906;8.376;2022-12-16T09:56:38;26.40;;;12.80;;
19111;SDS011;9688;51.906;8.376;2022-12-16T09:59:42;28.80;;;12.53;;
19111;SDS011;9688;51.906;8.376;2022-12-16T10:02:52;28.87;;;12.73;;
19111;SDS011;9688;51.906;8.376;2022-12-16T10:06:01;30.00;;;12.77;;
19111;SDS011;9688;51.906;8.376;2022-12-16T10:09:11;25.10;;;12.40;;
19111;SDS011;9688;51.906;8.376;2022-12-16T10:12:25;18.87;;;11.63;;
19111;SDS011;9688;51.906;8.376;2022-12-16T10:15:35;21.87;;;11.83;;
19111;SDS011;9688;51.906;8.376;2022-12-16T10:18:48;20.77;;;11.30;;
19111;SDS011;9688;51.906;8.376;2022-12-16T10:22:01;22.87;;;12.37;;
19111;SDS011;9688;51.906;8.376;2022-12-16T10:25:12;24.80;;;11.90;;
19111;SDS011;9688;51.906;8.376;2022-12-16T10:28:22;29.17;;;13.77;;
19111;SDS011;9688;51.906;8.376;2022-12-16T10:31:38;23.47;;;13.03;;
19111;SDS011;9688;51.906;8.376;2022-12-16T10:34:42;27.23;;;12.23;;
19111;SDS011;9688;51.906;8.376;2022-12-16T10:38:02;28.30;;;12.17;;
19111;SDS011;9688;51.906;8.376;2022-12-16T10:41:17;25.10;;;12.63;;
19111;SDS011;9688;51.906;8.376;2022-12-16T10:44:25;29.80;;;12.50;;
19111;SDS011;9688;51.906;8.376;2022-12-16T10:47:35;25.90;;;13.10;;
19111;SDS011;9688;51.906;8.376;2022-12-16T10:50:39;23.07;;;12.70;;
19111;SDS011;9688;51.906;8.376;2022-12-16T10:53:44;21.23;;;12.10;;
19111;SDS011;9688;51.906;8.376;2022-12-16T10:56:54;21.00;;;12.97;;
19111;SDS011;9688;51.906;8.376;2022-12-16T11:00:07;32.40;;;14.00;;
19111;SDS011;9688;51.906;8.376;2022-12-16T11:03:16;31.03;;;14.07;;
19111;SDS011;9688;51.906;8.376;2022-12-16T11:06:22;28.03;;;12.97;;
19111;SDS011;9688;51.906;8.376;2022-12-16T11:09:32;27.03;;;13.83;;
19111;SDS011;9688;51.906;8.376;2022-12-16T11:12:38;29.13;;;13.47;;
19111;SDS011;9688;51.906;8.376;2022-12-16T11:15:43;30.57;;;14.07;;
19111;SDS011;9688;51.906;8.376;2022-12-16T11:18:51;30.27;;;13.50;;
19111;SDS011;9688;51.906;8.376;2022-12-16T11:21:58;28.27;;;14.33;;
19111;SDS011;9688;51.906;8.376;2022-12-16T11:25:14;36.63;;;15.30;;
19111;SDS011;9688;51.906;8.376;2022-12-16T11:28:19;27.77;;;14.30;;
19111;SDS011;9688;51.906;8.376;2022-12-16T11:31:23;26.33;;;13.20;;
19111;SDS011;9688;51.906;8.376;2022-12-16T11:34:27;25.60;;;13.73;;
19111;SDS011;9688;51.906;8.376;2022-12-16T11:37:30;25.17;;;13.30;;
19111;SDS011;9688;51.906;8.376;2022-12-16T11:40:36;25.73;;;14.37;;
19111;SDS011;9688;51.906;8.376;2022-12-16T11:43:40;26.17;;;13.30;;
19111;SDS011;9688;51.906;8.376;2022-12-16T11:46:51;23.77;;;13.23;;
19111;SDS011;9688;51.906;8.376;2022-12-16T11:49:56;28.50;;;14.20;;
19111;SDS011;9688;51.906;8.376;2022-12-16T11:53:00;28.10;;;14.00;;
19111;SDS011;9688;51.906;8.376;2022-12-16T11:56:06;28.70;;;13.83;;
19111;SDS011;9688;51.906;8.376;2022-12-16T11:59:16;26.50;;;13.93;;
19111;SDS011;9688;51.906;8.376;2022-12-16T12:02:35;28.67;;;15.10;;
19111;SDS011;9688;51.906;8.376;2022-12-16T12:05:44;29.33;;;15.50;;
19111;SDS011;9688;51.906;8.376;2022-12-16T12:09:01;32.87;;;15.87;;
19111;SDS011;9688;51.906;8.376;2022-12-16T12:12:14;27.53;;;14.30;;
19111;SDS011;9688;51.906;8.376;2022-12-16T12:15:26;24.10;;;14.17;;
19111;SDS011;9688;51.906;8.376;2022-12-16T12:18:39;25.97;;;14.77;;
19111;SDS011;9688;51.906;8.376;2022-12-16T12:21:49;24.80;;;14.63;;
19111;SDS011;9688;51.906;8.376;2022-12-16T12:25:01;40.80;;;15.30;;
19111;SDS011;9688;51.906;8.376;2022-12-16T12:28:26;29.80;;;15.07;;
19111;SDS011;9688;51.906;8.376;2022-12-16T12:31:39;31.57;;;15.20;;
19111;SDS011;9688;51.906;8.376;2022-12-16T12:34:50;27.00;;;15.30;;
19111;SDS011;9688;51.906;8.376;2022-12-16T12:38:00;27.50;;;14.20;;
19111;SDS011;9688;51.906;8.376;2022-12-16T12:41:09;29.10;;;15.37;;
19111;SDS011;9688;51.906;8.376;2022-12-16T12:44:23;25.13;;;14.00;;
19111;SDS011;9688;51.906;8.376;2022-12-16T12:47:42;26.97;;;14.47;;
19111;SDS011;9688;51.906;8.376;2022-12-16T12:50:53;29.00;;;13.77;;
19111;SDS011;9688;51.906;8.376;2022-12-16T12:54:18;26.83;;;14.03;;
19111;SDS011;9688;51.906;8.376;2022-12-16T12:57:31;27.80;;;15.00;;
19111;SDS011;9688;51.906;8.376;2022-12-16T13:00:42;24.93;;;14.70;;
19111;SDS011;9688;51.906;8.376;2022-12-16T13:03:56;25.80;;;14.13;;
19111;SDS011;9688;51.906;8.376;2022-12-16T13:07:05;24.33;;;14.10;;
19111;SDS011;9688;51.906;8.376;2022-12-16T13:10:11;28.27;;;14.63;;
19111;SDS011;9688;51.906;8.376;2022-12-16T13:13:32;27.67;;;14.77;;
19111;SDS011;9688;51.906;8.376;2022-12-16T13:16:55;28.00;;;14.70;;
19111;SDS011;9688;51.906;8.376;2022-12-16T13:20:04;31.67;;;15.17;;
19111;SDS011;9688;51.906;8.376;2022-12-16T13:23:49;32.80;;;15.93;;
19111;SDS011;9688;51.906;8.376;2022-12-16T13:26:58;26.63;;;14.67;;
19111;SDS011;9688;51.906;8.376;2022-12-16T13:30:16;30.73;;;14.50;;
19111;SDS011;9688;51.906;8.376;2022-12-16T13:33:27;29.93;;;15.10;;
19111;SDS011;9688;51.906;8.376;2022-12-16T13:36:33;31.47;;;14.53;;
19111;SDS011;9688;51.906;8.376;2022-12-16T13:39:38;32.47;;;16.17;;
19111;SDS011;9688;51.906;8.376;2022-12-16T13:42:48;29.20;;;15.20;;
19111;SDS011;9688;51.906;8.376;2022-12-16T13:46:14;30.73;;;15.63;;
19111;SDS011;9688;51.906;8.376;2022-12-16T13:52:47;31.03;;;15.30;;
19111;SDS011;9688;51.906;8.376;2022-12-16T13:55:58;35.40;;;15.50;;
19111;SDS011;9688;51.906;8.376;2022-12-16T13:59:03;41.10;;;16.77;;
19111;SDS011;9688;51.906;8.376;2022-12-16T14:02:12;29.83;;;15.10;;
19111;SDS011;9688;51.906;8.376;2022-12-16T14:05:24;32.83;;;16.37;;
19111;SDS011;9688;51.906;8.376;2022-12-16T14:08:32;30.33;;;15.50;;
19111;SDS011;9688;51.906;8.376;2022-12-16T14:11:42;36.57;;;17.13;;
19111;SDS011;9688;51.906;8.376;2022-12-16T14:14:52;31.33;;;15.57;;
19111;SDS011;9688;51.906;8.376;2022-12-16T14:18:09;33.80;;;16.63;;
19111;SDS011;9688;51.906;8.376;2022-12-16T14:21:30;29.73;;;15.57;;
19111;SDS011;9688;51.906;8.376;2022-12-16T14:24:41;29.57;;;15.13;;
19111;SDS011;9688;51.906;8.376;2022-12-16T14:27:46;28.80;;;15.20;;
19111;SDS011;9688;51.906;8.376;2022-12-16T14:31:00;29.40;;;15.40;;
19111;SDS011;9688;51.906;8.376;2022-12-16T14:34:04;32.70;;;15.70;;
19111;SDS011;9688;51.906;8.376;2022-12-16T14:37:18;33.20;;;16.40;;
19111;SDS011;9688;51.906;8.376;2022-12-16T14:40:27;34.67;;;16.80;;
19111;SDS011;9688;51.906;8.376;2022-12-16T14:43:33;30.90;;;16.83;;
19111;SDS011;9688;51.906;8.376;2022-12-16T14:46:38;30.10;;;18.50;;
19111;SDS011;9688;51.906;8.376;2022-12-16T14:49:47;29.40;;;18.03;;
19111;SDS011;9688;51.906;8.376;2022-12-16T14:53:09;33.77;;;18.47;;
19111;SDS011;9688;51.906;8.376;2022-12-16T14:56:16;28.53;;;17.03;;
19111;SDS011;9688;51.906;8.376;2022-12-16T14:59:21;36.37;;;17.50;;
19111;SDS011;9688;51.906;8.376;2022-12-16T15:02:26;34.83;;;17.73;;
19111;SDS011;9688;51.906;8.376;2022-12-16T15:05:35;33.67;;;17.93;;
19111;SDS011;9688;51.906;8.376;2022-12-16T15:08:44;32.90;;;18.77;;
19111;SDS011;9688;51.906;8.376;2022-12-16T15:11:51;38.33;;;19.53;;
19111;SDS011;9688;51.906;8.376;2022-12-16T15:14:57;35.10;;;18.00;;
19111;SDS011;9688;51.906;8.376;2022-12-16T15:18:04;37.97;;;18.77;;
19111;SDS011;9688;51.906;8.376;2022-12-16T15:21:19;42.73;;;18.97;;
19111;SDS011;9688;51.906;8.376;2022-12-16T15:24:25;33.90;;;19.23;;
19111;SDS011;9688;51.906;8.376;2022-12-16T15:27:37;40.63;;;20.60;;
19111;SDS011;9688;51.906;8.376;2022-12-16T15:30:45;33.63;;;18.20;;
19111;SDS011;9688;51.906;8.376;2022-12-16T15:33:50;36.00;;;19.13;;
19111;SDS011;9688;51.906;8.376;2022-12-16T15:37:29;34.80;;;18.83;;
19111;SDS011;9688;51.906;8.376;2022-12-16T15:40:37;33.73;;;18.73;;
19111;SDS011;9688;51.906;8.376;2022-12-16T15:43:43;33.20;;;18.33;;
19111;SDS011;9688;51.906;8.376;2022-12-16T15:46:47;38.07;;;18.43;;
19111;SDS011;9688;51.906;8.376;2022-12-16T15:49:52;33.30;;;18.73;;
19111;SDS011;9688;51.906;8.376;2022-12-16T15:56:32;34.60;;;18.77;;
19111;SDS011;9688;51.906;8.376;2022-12-16T15:59:56;38.03;;;18.63;;
19111;SDS011;9688;51.906;8.376;2022-12-16T16:03:01;41.03;;;19.53;;
19111;SDS011;9688;51.906;8.376;2022-12-16T16:06:10;33.87;;;18.43;;
19111;SDS011;9688;51.906;8.376;2022-12-16T16:09:21;37.97;;;19.17;;
19111;SDS011;9688;51.906;8.376;2022-12-16T16:12:28;39.97;;;19.30;;
19111;SDS011;9688;51.906;8.376;2022-12-16T16:15:40;32.90;;;19.23;;
19111;SDS011;9688;51.906;8.376;2022-12-16T16:18:43;38.67;;;19.07;;
19111;SDS011;9688;51.906;8.376;2022-12-16T16:21:48;40.23;;;19.73;;
19111;SDS011;9688;51.906;8.376;2022-12-16T16:24:51;39.93;;;19.43;;
19111;SDS011;9688;51.906;8.376;2022-12-16T16:27:54;40.13;;;21.47;;
19111;SDS011;9688;51.906;8.376;2022-12-16T16:31:08;47.17;;;24.27;;
19111;SDS011;9688;51.906;8.376;2022-12-16T16:34:12;49.23;;;22.53;;
19111;SDS011;9688;51.906;8.376;2022-12-16T16:37:18;40.87;;;22.30;;
19111;SDS011;9688;51.906;8.376;2022-12-16T16:40:26;47.57;;;21.67;;
19111;SDS011;9688;51.906;8.376;2022-12-16T16:43:33;45.97;;;22.13;;
19111;SDS011;9688;51.906;8.376;2022-12-16T16:46:41;49.37;;;23.67;;
19111;SDS011;9688;51.906;8.376;2022-12-16T16:49:45;43.30;;;22.93;;
19111;SDS011;9688;51.906;8.376;2022-12-16T16:52:50;48.67;;;23.23;;
19111;SDS011;9688;51.906;8.376;2022-12-16T16:55:53;43.67;;;22.20;;
19111;SDS011;9688;51.906;8.376;2022-12-16T16:58:57;53.40;;;22.40;;
19111;SDS011;9688;51.906;8.376;2022-12-16T17:02:00;51.00;;;23.60;;
19111;SDS011;9688;51.906;8.376;2022-12-16T17:05:11;49.73;;;24.63;;
19111;SDS011;9688;51.906;8.376;2022-12-16T17:08:17;46.57;;;25.17;;
19111;SDS011;9688;51.906;8.376;2022-12-16T17:11:25;48.70;;;24.90;;
19111;SDS011;9688;51.906;8.376;2022-12-16T17:14:30;62.50;;;27.63;;
19111;SDS011;9688;51.906;8.376;2022-12-16T17:17:34;63.87;;;28.20;;
19111;SDS011;9688;51.906;8.376;2022-12-16T17:20:37;91.17;;;39.70;;
19111;SDS011;9688;51.906;8.376;2022-12-16T17:23:38;80.47;;;37.70;;
19111;SDS011;9688;51.906;8.376;2022-12-16T17:26:42;75.43;;;36.93;;
19111;SDS011;9688;51.906;8.376;2022-12-16T17:29:46;80.90;;;36.27;;
19111;SDS011;9688;51.906;8.376;2022-12-16T17:32:49;81.87;;;37.17;;
19111;SDS011;9688;51.906;8.376;2022-12-16T17:35:55;66.83;;;32.57;;
19111;SDS011;9688;51.906;8.376;2022-12-16T17:39:00;64.20;;;31.67;;
19111;SDS011;9688;51.906;8.376;2022-12-16T17:42:04;68.67;;;32.30;;
19111;SDS011;9688;51.906;8.376;2022-12-16T17:45:07;65.57;;;32.00;;
19111;SDS011;9688;51.906;8.376;2022-12-16T17:48:11;69.03;;;31.60;;
19111;SDS011;9688;51.906;8.376;2022-12-16T17:51:15;57.37;;;29.80;;
19111;SDS011;9688;51.906;8.376;2022-12-16T17:54:36;66.60;;;29.63;;
19111;SDS011;9688;51.906;8.376;2022-12-16T17:57:40;59.13;;;27.93;;
19111;SDS011;9688;51.906;8.376;2022-12-16T18:00:43;56.47;;;27.80;;
19111;SDS011;9688;51.906;8.376;2022-12-16T18:03:46;67.07;;;29.17;;
19111;SDS011;9688;51.906;8.376;2022-12-16T18:06:49;60.97;;;29.43;;
19111;SDS011;9688;51.906;8.376;2022-12-16T18:09:55;60.23;;;28.53;;
19111;SDS011;9688;51.906;8.376;2022-12-16T18:12:58;63.50;;;30.23;;
19111;SDS011;9688;51.906;8.376;2022-12-16T18:16:06;67.53;;;31.67;;
19111;SDS011;9688;51.906;8.376;2022-12-16T18:19:09;75.10;;;34.37;;